Time;durP1;ratioP1;P1;durP2;ratioP2;P2;SDS_P1;SDS_P2;PMS_P1;PMS_P2;Temp;Humidity;BMP_temperature;BMP_pressure;BME280_temperature;BME280_humidity;BME280_pressure;Samples;Min_cycle;Max_cycle;Signal;HPM_P1;HPM_P2
2022/08/16 00:01:43;;;;;;;7.80;7.10;;;23.70;99.90;;;;;;5081845;28;20393;-68
2022/08/16 00:04:09;;;;;;;7.90;7.20;;;23.70;99.90;;;;;;5082330;28;20639;-69
2022/08/16 00:06:34;;;;;;;7.40;6.70;;;23.80;99.90;;;;;;5085413;28;20381;-69
2022/08/16 00:09:00;;;;;;;9.70;8.80;;;23.80;99.90;;;;;;5087759;28;20479;-67
2022/08/16 00:11:25;;;;;;;9.40;8.33;;;23.90;99.90;;;;;;5089956;28;20400;-68
2022/08/16 00:13:51;;;;;;;9.07;8.23;;;23.90;99.90;;;;;;5090783;28;20836;-68
2022/08/16 00:16:16;;;;;;;9.57;8.63;;;23.90;99.90;;;;;;5089087;28;20401;-68
2022/08/16 00:18:42;;;;;;;9.03;8.13;;;23.90;99.90;;;;;;5089469;28;20500;-68
2022/08/16 00:21:08;;;;;;;9.05;8.25;;;23.80;99.90;;;;;;5088457;28;20377;-68
2022/08/16 00:23:33;;;;;;;11.30;8.43;;;23.90;99.90;;;;;;5090440;28;20666;-68
2022/08/16 00:25:59;;;;;;;9.25;8.35;;;23.70;99.90;;;;;;5089677;28;20393;-69
2022/08/16 00:28:25;;;;;;;8.40;7.60;;;23.50;99.90;;;;;;5088614;28;20471;-68
2022/08/16 00:30:51;;;;;;;8.32;7.53;;;23.50;99.90;;;;;;5090017;28;20777;-68
2022/08/16 00:33:16;;;;;;;8.63;7.80;;;23.60;99.90;;;;;;5089754;28;20386;-68
2022/08/16 00:35:42;;;;;;;9.30;8.30;;;23.50;99.90;;;;;;5090517;28;20482;-68
2022/08/16 00:38:08;;;;;;;8.40;7.70;;;23.50;99.90;;;;;;5092348;28;20797;-68
2022/08/16 00:40:43;;;;;;;10.18;8.88;;;23.50;99.90;;;;;;5090751;28;20705;-68
2022/08/16 00:43:15;;;;;;;9.82;8.93;;;23.50;99.90;;;;;;5090767;28;20543;-68
2022/08/16 00:46:08;;;;;;;8.55;7.70;;;23.50;99.90;;;;;;5087575;28;20385;-68
2022/08/16 00:48:34;;;;;;;8.63;7.90;;;23.50;99.90;;;;;;5088161;28;20409;-68
2022/08/16 00:51:00;;;;;;;9.00;8.10;;;23.60;99.90;;;;;;5089110;28;20394;-68
2022/08/16 00:53:26;;;;;;;9.48;8.10;;;23.70;99.90;;;;;;5089782;28;20684;-68
2022/08/16 00:55:55;;;;;;;9.18;8.27;;;23.70;99.90;;;;;;5089475;28;20452;-68
2022/08/16 00:58:25;;;;;;;9.45;8.18;;;23.70;99.90;;;;;;5090189;28;20374;-68
2022/08/16 01:00:51;;;;;;;12.50;8.60;;;23.60;99.90;;;;;;5087806;28;20674;-68
2022/08/16 01:03:18;;;;;;;8.10;7.40;;;23.60;99.90;;;;;;5089645;28;20382;-68
2022/08/16 01:05:45;;;;;;;7.90;7.20;;;23.50;99.90;;;;;;5088873;28;20473;-68
2022/08/16 01:08:13;;;;;;;9.23;8.43;;;23.50;99.90;;;;;;5086688;28;20502;-68
2022/08/16 01:10:40;;;;;;;8.02;7.32;;;23.30;99.90;;;;;;5090006;28;20390;-68
2022/08/16 01:13:10;;;;;;;7.78;6.88;;;23.20;99.90;;;;;;5089274;28;20754;-68
2022/08/16 01:15:38;;;;;;;7.75;7.15;;;23.30;99.90;;;;;;5087073;28;20405;-68
2022/08/16 01:18:08;;;;;;;9.00;7.75;;;23.40;99.90;;;;;;5091009;28;20499;-68
2022/08/16 01:20:41;;;;;;;9.35;8.48;;;23.40;99.90;;;;;;5091478;28;20378;-68
2022/08/16 01:23:13;;;;;;;9.60;8.80;;;23.50;99.90;;;;;;5090420;28;20390;-68
2022/08/16 01:25:43;;;;;;;10.98;9.85;;;23.50;99.90;;;;;;5087987;28;20535;-69
2022/08/16 01:28:14;;;;;;;10.48;9.52;;;23.40;99.90;;;;;;5089243;28;20614;-68
2022/08/16 01:30:43;;;;;;;11.45;8.70;;;23.30;99.90;;;;;;5088668;28;20378;-68
2022/08/16 01:33:09;;;;;;;8.82;8.13;;;23.30;99.90;;;;;;5091673;28;20398;-68
2022/08/16 01:35:46;;;;;;;9.40;8.35;;;23.30;99.90;;;;;;5091430;28;20414;-68
2022/08/16 01:38:15;;;;;;;10.80;9.75;;;23.40;99.90;;;;;;5092446;28;20673;-68
2022/08/16 01:40:40;;;;;;;10.45;9.55;;;23.40;99.90;;;;;;5093653;28;20397;-68
2022/08/16 01:43:07;;;;;;;9.50;8.70;;;23.40;99.90;;;;;;5092728;28;20370;-67
2022/08/16 01:45:33;;;;;;;9.50;8.60;;;23.40;99.90;;;;;;5092622;28;20740;-68
2022/08/16 01:47:58;;;;;;;11.88;10.70;;;23.40;99.90;;;;;;5090786;28;20432;-68
2022/08/16 01:50:24;;;;;;;11.37;10.17;;;23.30;99.90;;;;;;5089653;28;20382;-68
2022/08/16 01:52:50;;;;;;;11.27;10.20;;;23.30;99.90;;;;;;5088954;28;20739;-68
2022/08/16 01:55:17;;;;;;;12.03;10.97;;;23.10;99.90;;;;;;5090884;28;20408;-69
2022/08/16 01:57:43;;;;;;;11.52;10.43;;;23.10;99.90;;;;;;5090500;28;20662;-68
2022/08/16 02:00:12;;;;;;;11.30;10.23;;;23.10;99.90;;;;;;5090202;28;20459;-68
2022/08/16 02:02:37;;;;;;;11.40;10.20;;;23.10;99.90;;;;;;5088918;28;20419;-68
2022/08/16 02:05:04;;;;;;;11.93;10.73;;;23.10;99.90;;;;;;5089049;28;20770;-68
2022/08/16 02:07:31;;;;;;;11.18;10.10;;;23.10;99.90;;;;;;5089902;28;20486;-67
2022/08/16 02:09:57;;;;;;;10.43;9.43;;;23.10;99.90;;;;;;5088139;28;20382;-68
2022/08/16 02:12:23;;;;;;;11.27;10.30;;;23.10;99.90;;;;;;5089741;28;20386;-68
2022/08/16 02:14:49;;;;;;;10.67;9.77;;;23.10;99.90;;;;;;5090151;28;20416;-68
2022/08/16 02:17:15;;;;;;;12.02;10.90;;;23.10;99.90;;;;;;5093692;28;20397;-69
2022/08/16 02:19:42;;;;;;;11.10;10.02;;;23.10;99.90;;;;;;5094871;28;20382;-67
2022/08/16 02:22:12;;;;;;;12.18;11.02;;;23.00;99.90;;;;;;5093923;28;20381;-67
2022/08/16 02:24:39;;;;;;;11.43;10.43;;;22.90;99.90;;;;;;5093018;28;20397;-67
2022/08/16 02:27:04;;;;;;;10.40;9.60;;;23.00;99.90;;;;;;5094275;28;20775;-69
2022/08/16 02:29:30;;;;;;;11.47;10.47;;;23.00;99.90;;;;;;5092371;28;20512;-69
2022/08/16 02:31:56;;;;;;;12.35;11.15;;;22.90;99.90;;;;;;5091243;28;20394;-67
2022/08/16 02:34:21;;;;;;;10.73;9.57;;;22.90;99.90;;;;;;5092091;28;20426;-68
2022/08/16 02:36:47;;;;;;;10.23;9.33;;;22.80;99.90;;;;;;5089223;28;20425;-68
2022/08/16 02:39:14;;;;;;;11.63;10.63;;;22.90;99.90;;;;;;5090005;28;20370;-68
2022/08/16 02:41:43;;;;;;;12.13;10.70;;;22.90;99.90;;;;;;5089851;28;20770;-67
2022/08/16 02:44:10;;;;;;;11.17;10.27;;;22.90;99.90;;;;;;5091820;28;20446;-68
2022/08/16 02:46:36;;;;;;;12.90;11.57;;;22.90;99.90;;;;;;5093043;28;20390;-68
2022/08/16 02:49:03;;;;;;;12.48;11.30;;;22.80;99.90;;;;;;5091045;28;20400;-68
2022/08/16 02:51:28;;;;;;;13.85;12.45;;;22.70;99.90;;;;;;5089875;28;20386;-68
2022/08/16 02:53:54;;;;;;;12.88;11.50;;;22.50;99.90;;;;;;5091286;28;20414;-69
2022/08/16 02:56:20;;;;;;;14.00;12.57;;;22.30;99.90;;;;;;5090703;28;20386;-69
2022/08/16 02:58:48;;;;;;;13.77;12.57;;;22.10;99.90;;;;;;5090345;28;20768;-69
2022/08/16 03:01:16;;;;;;;12.27;11.18;;;21.90;99.90;;;;;;5090305;28;20414;-69
2022/08/16 03:03:42;;;;;;;12.20;11.00;;;22.00;99.90;;;;;;5091210;28;20459;-69
2022/08/16 03:06:08;;;;;;;12.73;11.55;;;22.10;99.90;;;;;;5092879;28;20378;-70
2022/08/16 03:08:33;;;;;;;13.30;12.00;;;22.20;99.90;;;;;;5091909;28;20635;-69
2022/08/16 03:10:59;;;;;;;13.88;12.45;;;22.10;99.90;;;;;;5092025;28;20389;-69
2022/08/16 03:13:25;;;;;;;14.50;13.00;;;22.00;99.90;;;;;;5092184;28;20452;-69
2022/08/16 03:15:51;;;;;;;13.63;12.37;;;21.90;99.90;;;;;;5090041;28;20461;-69
2022/08/16 03:18:16;;;;;;;12.93;11.73;;;21.90;99.90;;;;;;5089525;28;20393;-69
2022/08/16 03:20:42;;;;;;;14.98;13.38;;;21.90;99.90;;;;;;5088239;28;20385;-69
2022/08/16 03:23:08;;;;;;;14.30;12.93;;;21.90;99.90;;;;;;5088564;28;20390;-69
2022/08/16 03:25:34;;;;;;;14.32;12.93;;;21.90;99.90;;;;;;5090133;28;20397;-68
2022/08/16 03:28:00;;;;;;;13.05;11.85;;;21.90;99.90;;;;;;5090466;28;20484;-68
2022/08/16 03:30:29;;;;;;;13.48;12.02;;;21.80;99.90;;;;;;5090831;28;20624;-69
2022/08/16 03:32:55;;;;;;;12.52;11.43;;;21.90;99.90;;;;;;5090282;28;20474;-68
2022/08/16 03:35:23;;;;;;;12.27;10.97;;;21.90;99.90;;;;;;5088005;28;20532;-68
2022/08/16 03:37:53;;;;;;;15.88;13.68;;;22.10;99.90;;;;;;5087109;28;20382;-68
2022/08/16 03:40:19;;;;;;;13.77;12.45;;;22.00;99.90;;;;;;5085793;28;20734;-68
2022/08/16 03:42:44;;;;;;;15.30;13.90;;;21.90;99.90;;;;;;5086641;28;20700;-69
2022/08/16 03:45:10;;;;;;;14.63;13.38;;;21.90;99.90;;;;;;5090031;28;20686;-68
2022/08/16 03:47:37;;;;;;;16.47;14.87;;;21.80;99.90;;;;;;5092062;28;20870;-69
2022/08/16 03:50:05;;;;;;;15.23;13.70;;;21.60;99.90;;;;;;5090269;28;20417;-69
2022/08/16 03:52:30;;;;;;;14.05;12.75;;;21.70;99.90;;;;;;5091063;28;20389;-68
2022/08/16 03:54:56;;;;;;;16.07;14.47;;;21.80;99.90;;;;;;5090086;28;20680;-68
2022/08/16 03:57:22;;;;;;;16.90;15.23;;;21.70;99.90;;;;;;5089872;28;20396;-68
2022/08/16 03:59:47;;;;;;;14.97;13.40;;;21.60;99.90;;;;;;5090718;28;20377;-69
2022/08/16 04:02:13;;;;;;;13.82;12.68;;;21.60;99.90;;;;;;5089734;28;20404;-69
2022/08/16 04:04:38;;;;;;;13.10;11.90;;;21.70;99.90;;;;;;5090503;28;20469;-69
2022/08/16 04:07:05;;;;;;;13.18;11.88;;;21.90;99.90;;;;;;5092534;28;20409;-69
2022/08/16 04:09:32;;;;;;;13.57;12.32;;;22.00;99.90;;;;;;5091953;28;20421;-67
2022/08/16 04:11:58;;;;;;;13.13;11.75;;;22.10;99.90;;;;;;5091608;28;20788;-68
2022/08/16 04:14:25;;;;;;;12.95;11.70;;;22.10;99.90;;;;;;5089025;28;20408;-68
2022/08/16 04:16:51;;;;;;;12.20;11.05;;;22.20;99.90;;;;;;5088465;28;20485;-67
2022/08/16 04:19:16;;;;;;;12.52;11.32;;;22.30;99.90;;;;;;5085818;28;20446;-68
2022/08/16 04:21:42;;;;;;;12.20;11.00;;;22.30;99.90;;;;;;5086475;28;20385;-68
2022/08/16 04:24:07;;;;;;;14.27;12.80;;;22.40;99.90;;;;;;5085611;28;20389;-68
2022/08/16 04:26:33;;;;;;;15.13;13.63;;;22.30;99.90;;;;;;5088325;28;20394;-68
2022/08/16 04:29:01;;;;;;;13.67;12.40;;;22.30;99.90;;;;;;5087139;28;20582;-68
2022/08/16 04:31:26;;;;;;;12.80;11.65;;;22.30;99.90;;;;;;5087274;28;20390;-68
2022/08/16 04:33:52;;;;;;;13.23;12.07;;;22.30;99.90;;;;;;5086892;28;20443;-68
2022/08/16 04:36:18;;;;;;;15.68;14.27;;;22.40;99.90;;;;;;5088415;28;20424;-69
2022/08/16 04:38:44;;;;;;;15.87;14.37;;;22.30;99.90;;;;;;5089296;28;20394;-68
2022/08/16 04:41:09;;;;;;;16.90;14.17;;;22.20;99.90;;;;;;5089688;28;20635;-68
2022/08/16 04:43:37;;;;;;;16.10;14.60;;;22.20;99.90;;;;;;5090857;28;20813;-68
2022/08/16 04:46:03;;;;;;;17.15;15.48;;;22.20;99.90;;;;;;5090886;28;20836;-68
2022/08/16 04:48:29;;;;;;;19.10;17.13;;;22.00;99.90;;;;;;5089243;28;20401;-68
2022/08/16 04:50:55;;;;;;;18.98;17.17;;;21.90;99.90;;;;;;5087649;28;20382;-68
2022/08/16 04:53:21;;;;;;;19.38;17.58;;;21.70;99.90;;;;;;5087089;28;20478;-67
2022/08/16 04:55:47;;;;;;;18.05;16.25;;;21.60;99.90;;;;;;5087398;28;20734;-68
2022/08/16 04:58:13;;;;;;;18.40;16.70;;;21.60;99.90;;;;;;5087362;28;20378;-68
2022/08/16 05:00:39;;;;;;;19.77;17.05;;;21.60;99.90;;;;;;5089031;28;20562;-68
2022/08/16 05:03:09;;;;;;;19.67;17.67;;;21.60;99.90;;;;;;5089314;28;20849;-68
2022/08/16 05:05:37;;;;;;;19.17;17.33;;;21.60;99.90;;;;;;5086153;28;20378;-68
2022/08/16 05:08:04;;;;;;;19.15;17.25;;;21.70;99.90;;;;;;5085160;28;20427;-67
2022/08/16 05:10:30;;;;;;;20.73;18.73;;;21.60;99.90;;;;;;5083998;28;20601;-67
2022/08/16 05:12:58;;;;;;;20.17;18.27;;;21.60;99.90;;;;;;5084465;28;20434;-68
2022/08/16 05:15:24;;;;;;;21.38;19.02;;;21.60;99.90;;;;;;5084594;28;20405;-68
2022/08/16 05:17:50;;;;;;;22.50;20.33;;;21.50;99.90;;;;;;5086105;28;20378;-68
2022/08/16 05:20:15;;;;;;;21.27;19.07;;;21.50;99.90;;;;;;5087498;28;20426;-68
2022/08/16 05:22:41;;;;;;;24.67;20.73;;;21.50;99.90;;;;;;5088849;28;20382;-68
2022/08/16 05:25:08;;;;;;;22.70;19.75;;;21.50;99.90;;;;;;5091453;28;20657;-68
2022/08/16 05:27:34;;;;;;;22.23;19.92;;;21.40;99.90;;;;;;5088639;28;20390;-68
2022/08/16 05:29:59;;;;;;;22.43;19.83;;;21.40;99.90;;;;;;5087397;28;20905;-68
2022/08/16 05:32:25;;;;;;;23.03;18.97;;;21.40;99.90;;;;;;5088425;28;20867;-68
2022/08/16 05:34:50;;;;;;;26.33;20.58;;;21.50;99.90;;;;;;5086760;28;20586;-68
2022/08/16 05:37:16;;;;;;;22.77;20.17;;;21.40;99.90;;;;;;5083947;28;20417;-69
2022/08/16 05:39:42;;;;;;;23.43;21.07;;;21.40;99.90;;;;;;5084647;28;20382;-69
2022/08/16 05:42:07;;;;;;;20.77;18.67;;;21.40;99.90;;;;;;5085208;28;20397;-68
2022/08/16 05:44:33;;;;;;;20.13;18.03;;;21.50;99.90;;;;;;5088274;28;20378;-69
2022/08/16 05:47:00;;;;;;;21.10;19.00;;;21.60;99.90;;;;;;5087034;28;20520;-69
2022/08/16 05:49:27;;;;;;;20.75;18.00;;;21.60;99.90;;;;;;5087307;28;20454;-68
2022/08/16 05:51:54;;;;;;;19.90;17.92;;;21.70;99.90;;;;;;5089828;28;20685;-68
2022/08/16 05:54:21;;;;;;;23.80;20.33;;;21.80;99.90;;;;;;5089236;28;20402;-68
2022/08/16 05:56:47;;;;;;;23.63;19.17;;;21.70;99.90;;;;;;5088517;28;20482;-68
2022/08/16 05:59:14;;;;;;;22.30;19.52;;;21.70;99.90;;;;;;5087038;28;20477;-68
2022/08/16 06:01:43;;;;;;;23.00;20.58;;;21.70;99.90;;;;;;5085086;28;20390;-68
2022/08/16 06:04:10;;;;;;;21.58;19.33;;;21.70;99.90;;;;;;5082765;28;20393;-68
2022/08/16 06:06:36;;;;;;;20.38;18.40;;;21.70;99.90;;;;;;5078458;28;20778;-68
2022/08/16 06:09:02;;;;;;;20.48;18.45;;;21.70;99.90;;;;;;5081474;28;20384;-68
2022/08/16 06:11:28;;;;;;;20.40;18.33;;;21.80;99.90;;;;;;5081345;28;20374;-68
2022/08/16 06:13:54;;;;;;;18.33;16.42;;;21.80;99.90;;;;;;5081361;28;20378;-68
2022/08/16 06:16:20;;;;;;;17.92;16.13;;;21.70;99.90;;;;;;5082558;28;20405;-69
2022/08/16 06:18:46;;;;;;;21.00;18.40;;;21.90;99.90;;;;;;5079381;28;20937;-68
2022/08/16 06:21:13;;;;;;;21.48;19.15;;;21.90;99.90;;;;;;5080036;28;20394;-68
2022/08/16 06:23:39;;;;;;;16.55;14.88;;;21.70;99.90;;;;;;5080559;28;20393;-68
2022/08/16 06:26:06;;;;;;;19.23;17.13;;;21.80;99.90;;;;;;5079495;28;20640;-68
2022/08/16 06:28:32;;;;;;;16.77;15.10;;;21.90;99.90;;;;;;5077497;28;20594;-69
2022/08/16 06:30:58;;;;;;;20.05;17.42;;;22.00;99.90;;;;;;5075811;28;20639;-68
2022/08/16 06:33:24;;;;;;;19.27;15.63;;;22.10;99.90;;;;;;5076394;28;20422;-68
2022/08/16 06:35:51;;;;;;;19.77;16.65;;;22.20;99.90;;;;;;5071778;28;20525;-68
2022/08/16 06:38:17;;;;;;;17.30;15.57;;;22.30;99.90;;;;;;5071991;28;20388;-68
2022/08/16 06:40:42;;;;;;;17.73;16.10;;;22.30;99.90;;;;;;5073976;28;20370;-69
2022/08/16 06:43:08;;;;;;;18.17;15.43;;;22.30;99.90;;;;;;5077716;28;20467;-68
2022/08/16 06:45:36;;;;;;;19.23;16.00;;;22.40;99.90;;;;;;5078109;28;20394;-69
2022/08/16 06:48:04;;;;;;;20.33;15.40;;;22.40;99.90;;;;;;5081999;28;20401;-69
2022/08/16 06:50:29;;;;;;;14.57;13.07;;;22.30;99.90;;;;;;5082261;28;20646;-68
2022/08/16 06:52:56;;;;;;;15.07;13.30;;;22.30;99.90;;;;;;5081989;28;20386;-68
2022/08/16 06:55:22;;;;;;;18.42;12.55;;;22.40;99.90;;;;;;5083402;28;20752;-68
2022/08/16 06:57:48;;;;;;;14.30;12.80;;;22.40;99.90;;;;;;5077724;28;20782;-68
2022/08/16 07:00:17;;;;;;;16.05;14.10;;;22.50;99.90;;;;;;5075517;28;20378;-68
2022/08/16 07:02:43;;;;;;;16.30;13.48;;;22.60;99.90;;;;;;5073204;28;20386;-68
2022/08/16 07:05:11;;;;;;;14.30;11.60;;;22.50;99.90;;;;;;5077203;28;20781;-68
2022/08/16 07:07:38;;;;;;;17.97;13.00;;;22.60;99.90;;;;;;5082953;28;20378;-69
2022/08/16 07:10:07;;;;;;;16.73;12.85;;;22.70;99.90;;;;;;5084513;28;20466;-68
2022/08/16 07:12:33;;;;;;;14.15;12.68;;;22.80;99.90;;;;;;5084420;28;20394;-69
2022/08/16 07:14:59;;;;;;;14.38;12.20;;;22.80;99.90;;;;;;5084477;28;20406;-68
2022/08/16 07:17:26;;;;;;;16.55;11.88;;;22.90;99.90;;;;;;5084120;28;20394;-68
2022/08/16 07:19:53;;;;;;;16.13;11.57;;;22.80;99.90;;;;;;5083311;28;20386;-68
2022/08/16 07:22:19;;;;;;;10.25;9.13;;;22.80;99.90;;;;;;5081831;28;20458;-68
2022/08/16 07:24:45;;;;;;;13.82;10.27;;;22.80;99.90;;;;;;5079295;28;20413;-69
2022/08/16 07:27:11;;;;;;;14.60;10.65;;;22.80;99.90;;;;;;5080830;28;20378;-69
2022/08/16 07:29:38;;;;;;;14.32;10.18;;;22.90;99.90;;;;;;5083150;28;20399;-69
2022/08/16 07:32:05;;;;;;;10.95;8.50;;;22.90;99.90;;;;;;5082059;28;20402;-69
2022/08/16 07:34:32;;;;;;;12.88;9.43;;;23.00;99.90;;;;;;5082962;28;20501;-69
2022/08/16 07:37:02;;;;;;;10.60;8.57;;;23.00;99.90;;;;;;5083297;28;20398;-69
2022/08/16 07:39:28;;;;;;;9.43;7.68;;;23.10;99.90;;;;;;5081512;28;20381;-68
2022/08/16 07:41:54;;;;;;;9.73;7.72;;;23.20;99.90;;;;;;5082103;28;20382;-68
2022/08/16 07:44:23;;;;;;;10.50;7.28;;;23.30;99.90;;;;;;5079395;28;20456;-68
2022/08/16 07:46:48;;;;;;;10.68;8.35;;;23.30;99.90;;;;;;5078153;28;20398;-69
2022/08/16 07:49:14;;;;;;;11.07;7.78;;;23.30;99.90;;;;;;5071489;28;20443;-68
2022/08/16 07:51:40;;;;;;;10.88;7.78;;;23.40;99.90;;;;;;5070699;28;20386;-68
2022/08/16 07:54:08;;;;;;;8.90;7.50;;;23.50;99.90;;;;;;5069544;28;20498;-68
2022/08/16 07:56:34;;;;;;;13.80;8.90;;;23.50;99.90;;;;;;5073906;28;20778;-69
2022/08/16 07:59:00;;;;;;;8.53;7.33;;;23.40;99.90;;;;;;5074695;28;20442;-68
2022/08/16 08:01:28;;;;;;;8.97;7.13;;;23.40;99.90;;;;;;5073727;28;20430;-68
2022/08/16 08:03:55;;;;;;;9.48;7.05;;;23.60;99.90;;;;;;5073775;28;20382;-68
2022/08/16 08:06:22;;;;;;;11.80;7.85;;;23.60;99.90;;;;;;5071036;28;20417;-68
2022/08/16 08:08:48;;;;;;;9.93;7.20;;;23.70;99.90;;;;;;5073513;28;20431;-68
2022/08/16 08:11:15;;;;;;;9.90;7.88;;;23.80;99.90;;;;;;5072440;28;20670;-69
2022/08/16 08:13:40;;;;;;;9.90;7.75;;;23.70;99.90;;;;;;5070555;28;20815;-68
2022/08/16 08:16:06;;;;;;;6.18;5.38;;;23.80;99.90;;;;;;5071091;28;20414;-69
2022/08/16 08:18:32;;;;;;;7.60;6.80;;;23.80;99.90;;;;;;5072906;28;20475;-69
2022/08/16 08:20:57;;;;;;;9.50;7.53;;;23.90;99.90;;;;;;5072545;28;20416;-69
2022/08/16 08:23:24;;;;;;;7.05;5.75;;;23.90;99.90;;;;;;5077896;28;20381;-69
2022/08/16 08:25:50;;;;;;;7.77;6.07;;;23.90;99.90;;;;;;5082285;28;20460;-69
2022/08/16 08:28:17;;;;;;;9.85;6.18;;;24.10;99.90;;;;;;5082780;28;20884;-69
2022/08/16 08:30:43;;;;;;;7.15;5.03;;;24.20;99.90;;;;;;5089455;28;20637;-64
2022/08/16 08:33:10;;;;;;;9.35;7.43;;;24.20;99.90;;;;;;5086577;28;20445;-63
2022/08/16 08:35:36;;;;;;;9.05;6.90;;;24.20;99.90;;;;;;5084786;28;20441;-63
2022/08/16 08:38:02;;;;;;;11.67;7.77;;;24.10;99.90;;;;;;5089127;28;20868;-62
2022/08/16 08:40:29;;;;;;;9.38;7.03;;;24.00;99.90;;;;;;5089014;28;20444;-63
2022/08/16 08:43:00;;;;;;;9.38;7.32;;;24.10;99.90;;;;;;5086145;28;20918;-62
2022/08/16 08:45:26;;;;;;;9.57;6.53;;;24.10;99.90;;;;;;5086878;28;20465;-62
2022/08/16 08:47:55;;;;;;;9.65;7.05;;;24.20;99.90;;;;;;5086776;28;20547;-62
2022/08/16 08:50:22;;;;;;;9.27;6.60;;;24.30;99.90;;;;;;5084015;28;20468;-63
2022/08/16 08:52:48;;;;;;;9.70;7.43;;;24.20;99.90;;;;;;5082834;28;20828;-63
2022/08/16 08:55:14;;;;;;;6.68;5.65;;;24.20;99.90;;;;;;5083670;28;20394;-63
2022/08/16 08:57:44;;;;;;;8.60;5.97;;;24.20;99.90;;;;;;5084942;28;20374;-62
2022/08/16 09:00:11;;;;;;;6.85;5.35;;;24.30;99.90;;;;;;5083736;28;20389;-63
2022/08/16 09:02:37;;;;;;;6.47;5.38;;;24.50;99.90;;;;;;5085790;28;20396;-63
2022/08/16 09:05:03;;;;;;;8.37;5.77;;;24.50;99.90;;;;;;5086725;28;20627;-63
2022/08/16 09:07:29;;;;;;;8.73;5.97;;;24.70;99.90;;;;;;5079257;28;20598;-63
2022/08/16 09:09:55;;;;;;;7.73;5.47;;;24.70;99.90;;;;;;5077660;28;20382;-63
2022/08/16 09:12:21;;;;;;;8.93;6.55;;;24.60;99.90;;;;;;5078667;28;20401;-63
2022/08/16 09:14:46;;;;;;;6.65;5.65;;;24.60;99.90;;;;;;5080344;28;20394;-63
2022/08/16 09:17:12;;;;;;;4.57;3.90;;;24.70;99.90;;;;;;5080764;28;20386;-63
2022/08/16 09:19:39;;;;;;;6.63;5.85;;;24.80;99.90;;;;;;5081125;28;20492;-62
2022/08/16 09:22:05;;;;;;;6.35;5.40;;;24.80;99.90;;;;;;5081196;28;20397;-63
2022/08/16 09:24:32;;;;;;;7.40;5.00;;;24.90;99.90;;;;;;5079463;28;20662;-63
2022/08/16 09:26:58;;;;;;;8.30;6.20;;;25.00;99.90;;;;;;5080432;28;20451;-63
2022/08/16 09:29:24;;;;;;;11.40;5.20;;;25.00;99.90;;;;;;5081504;28;20394;-63
2022/08/16 09:31:50;;;;;;;8.65;5.90;;;25.20;99.90;;;;;;5080439;28;20742;-63
2022/08/16 09:34:16;;;;;;;6.13;5.28;;;25.20;99.90;;;;;;5078445;28;20402;-63
2022/08/16 09:36:42;;;;;;;8.38;6.32;;;25.20;99.90;;;;;;5079540;28;20405;-63
2022/08/16 09:39:08;;;;;;;6.27;5.33;;;25.20;99.90;;;;;;5079173;28;20700;-63
2022/08/16 09:41:34;;;;;;;7.90;6.72;;;25.30;99.90;;;;;;5076252;28;20382;-64
2022/08/16 09:44:02;;;;;;;8.52;6.38;;;25.30;99.90;;;;;;5077161;28;20654;-63
2022/08/16 09:46:29;;;;;;;10.50;7.10;;;25.30;99.90;;;;;;5078113;28;20460;-63
2022/08/16 09:48:56;;;;;;;10.43;7.82;;;25.40;99.90;;;;;;5076818;28;20682;-63
2022/08/16 09:51:25;;;;;;;12.00;7.63;;;25.40;99.90;;;;;;5078563;28;20378;-68
2022/08/16 09:53:51;;;;;;;7.63;6.28;;;25.30;99.90;;;;;;5077554;28;20784;-69
2022/08/16 09:56:32;;;;;;;6.00;5.43;;;25.30;99.90;;;;;;5088160;28;20414;-69
2022/08/16 09:59:01;;;;;;;9.13;6.30;;;25.50;99.90;;;;;;5086216;28;21035;-69
2022/08/16 10:01:27;;;;;;;7.47;5.43;;;25.50;99.90;;;;;;5084846;28;20405;-69
2022/08/16 10:03:53;;;;;;;9.07;6.10;;;25.60;99.90;;;;;;5082422;28;20386;-69
2022/08/16 10:06:20;;;;;;;8.83;6.70;;;25.50;99.90;;;;;;5086540;28;20446;-69
2022/08/16 10:08:48;;;;;;;9.50;5.50;;;25.60;99.90;;;;;;5085913;28;20379;-69
2022/08/16 10:13:58;;;;;;;7.17;5.63;;;25.60;99.90;;;;;;5081949;28;20442;-69
2022/08/16 10:16:24;;;;;;;9.53;6.50;;;25.70;99.90;;;;;;5081297;28;20962;-68
2022/08/16 10:18:49;;;;;;;5.38;4.93;;;25.70;99.90;;;;;;5081594;28;20437;-69
2022/08/16 10:21:15;;;;;;;9.15;5.97;;;25.70;99.90;;;;;;5078440;28;20387;-69
2022/08/16 10:23:43;;;;;;;7.15;5.40;;;25.80;99.90;;;;;;5077931;28;20455;-69
2022/08/16 10:26:09;;;;;;;7.70;4.85;;;25.80;99.90;;;;;;5079830;28;20387;-69
2022/08/16 10:28:35;;;;;;;8.30;5.50;;;26.00;99.90;;;;;;5079344;28;20738;-68
2022/08/16 10:31:02;;;;;;;10.80;6.10;;;26.00;99.90;;;;;;5079816;28;20821;-69
2022/08/16 10:33:28;;;;;;;8.48;6.07;;;26.00;99.90;;;;;;5081022;28;20429;-69
2022/08/16 10:35:54;;;;;;;7.73;5.73;;;26.10;99.90;;;;;;5080869;28;20486;-69
2022/08/16 10:38:20;;;;;;;5.00;4.50;;;26.00;99.90;;;;;;5079978;28;20390;-69
2022/08/16 10:40:46;;;;;;;7.07;5.50;;;26.20;99.90;;;;;;5078667;28;20481;-68
2022/08/16 10:43:12;;;;;;;6.72;5.80;;;26.10;99.90;;;;;;5080467;28;20378;-69
2022/08/16 10:45:39;;;;;;;7.60;5.07;;;26.10;99.90;;;;;;5074458;28;20902;-69
2022/08/16 10:48:06;;;;;;;7.53;6.07;;;26.20;99.90;;;;;;5071137;28;20422;-69
2022/08/16 10:50:33;;;;;;;8.90;5.67;;;26.30;99.90;;;;;;5072517;28;20382;-69
2022/08/16 10:53:05;;;;;;;6.30;5.68;;;26.40;99.90;;;;;;5072990;28;20409;-69
2022/08/16 10:55:40;;;;;;;5.43;4.70;;;26.50;99.90;;;;;;5067766;28;20397;-69
2022/08/16 10:58:10;;;;;;;5.93;4.78;;;26.60;99.90;;;;;;5070944;28;20382;-69
2022/08/16 11:00:39;;;;;;;8.85;5.88;;;26.70;99.90;;;;;;5066497;28;20393;-69
2022/08/16 11:03:05;;;;;;;7.10;5.72;;;26.70;99.90;;;;;;5062562;28;20454;-70
2022/08/16 11:05:33;;;;;;;6.00;5.07;;;26.70;99.90;;;;;;5063023;28;20439;-69
2022/08/16 11:07:59;;;;;;;6.53;5.10;;;26.70;99.90;;;;;;5061920;28;20484;-69
2022/08/16 11:10:39;;;;;;;7.10;5.22;;;26.80;99.90;;;;;;5065734;28;20378;-69
2022/08/16 11:13:06;;;;;;;8.85;5.80;;;26.90;99.90;;;;;;5071355;28;20565;-69
2022/08/16 11:15:33;;;;;;;9.18;5.43;;;26.80;99.90;;;;;;5072189;28;20565;-69
2022/08/16 11:17:59;;;;;;;6.40;5.25;;;26.80;99.90;;;;;;5078585;28;20394;-69
2022/08/16 11:20:27;;;;;;;7.03;4.72;;;26.80;99.90;;;;;;5079600;28;20374;-69
2022/08/16 11:22:53;;;;;;;6.32;5.00;;;26.90;99.90;;;;;;5080062;28;20382;-69
2022/08/16 11:25:22;;;;;;;7.43;5.60;;;27.00;99.90;;;;;;5081091;28;20707;-69
2022/08/16 11:27:49;;;;;;;7.40;5.83;;;26.90;99.90;;;;;;5082305;28;20941;-69
2022/08/16 11:30:16;;;;;;;5.68;5.13;;;27.00;99.90;;;;;;5081061;28;20413;-69
2022/08/16 11:32:45;;;;;;;10.93;6.63;;;26.80;99.90;;;;;;5082148;28;20429;-68
2022/08/16 11:35:15;;;;;;;5.47;4.95;;;26.70;99.90;;;;;;5082596;28;20916;-69
2022/08/16 11:37:45;;;;;;;5.90;4.80;;;26.60;99.90;;;;;;5065148;28;20504;-69
2022/08/16 11:40:11;;;;;;;6.05;5.00;;;26.60;99.90;;;;;;5081768;28;20378;-69
2022/08/16 11:42:37;;;;;;;7.60;5.55;;;26.50;99.90;;;;;;5065641;28;20378;-69
2022/08/16 11:45:03;;;;;;;8.77;5.47;;;26.50;99.90;;;;;;5066760;28;20397;-69
2022/08/16 11:47:28;;;;;;;7.38;4.72;;;26.40;99.90;;;;;;5063745;28;21061;-68
2022/08/16 11:49:54;;;;;;;4.90;4.50;;;26.40;99.90;;;;;;5061426;28;20386;-69
2022/08/16 11:52:22;;;;;;;5.20;4.63;;;26.40;99.90;;;;;;5078917;28;20385;-68
2022/08/16 11:54:48;;;;;;;8.10;5.30;;;26.50;99.90;;;;;;5061763;28;20764;-69
2022/08/16 11:57:15;;;;;;;7.60;5.18;;;26.50;99.90;;;;;;5062406;28;20394;-69
2022/08/16 11:59:40;;;;;;;7.78;5.60;;;26.50;99.90;;;;;;5080778;28;20393;-69
2022/08/16 12:02:08;;;;;;;8.53;5.93;;;26.50;99.90;;;;;;5083093;28;20392;-69
2022/08/16 12:04:34;;;;;;;7.97;6.35;;;26.40;99.90;;;;;;5083655;28;20382;-69
2022/08/16 12:07:04;;;;;;;6.93;6.28;;;26.20;99.90;;;;;;5063368;28;20475;-68
2022/08/16 12:09:30;;;;;;;8.85;6.60;;;25.90;99.90;;;;;;5084563;28;20766;-69
2022/08/16 12:11:57;;;;;;;7.15;6.45;;;25.70;99.90;;;;;;5069730;28;20476;-69
2022/08/16 12:14:23;;;;;;;9.73;6.72;;;25.60;99.90;;;;;;5069473;28;20423;-69
2022/08/16 12:16:52;;;;;;;9.10;6.65;;;25.60;99.90;;;;;;5088574;28;20905;-69
2022/08/16 12:19:18;;;;;;;8.55;6.80;;;25.60;99.90;;;;;;5069180;28;20388;-69
2022/08/16 12:21:44;;;;;;;8.63;6.53;;;25.60;99.90;;;;;;5086198;28;20397;-69
2022/08/16 12:24:10;;;;;;;9.07;6.13;;;25.60;99.90;;;;;;5068735;28;20374;-68
2022/08/16 12:26:36;;;;;;;7.13;5.40;;;25.60;99.90;;;;;;5069675;28;20384;-69
2022/08/16 12:29:02;;;;;;;6.78;5.18;;;25.60;99.90;;;;;;5069804;28;20377;-69
2022/08/16 12:31:28;;;;;;;7.10;5.05;;;25.60;99.90;;;;;;5068965;28;20466;-69
2022/08/16 12:33:54;;;;;;;8.63;4.77;;;25.70;99.90;;;;;;5067549;28;20398;-69
2022/08/16 12:36:20;;;;;;;7.50;5.05;;;25.90;99.90;;;;;;5083821;28;20414;-69
2022/08/16 12:38:45;;;;;;;6.80;4.53;;;26.10;99.90;;;;;;5080642;28;20389;-69